Time;durP1;ratioP1;P1;durP2;ratioP2;P2;SDS_P1;SDS_P2;PMS_P1;PMS_P2;Temp;Humidity;BMP_temperature;BMP_pressure;BME280_temperature;BME280_humidity;BME280_pressure;Samples;Min_cycle;Max_cycle;Signal;HPM_P1;HPM_P2
2022/08/24 00:01:19;;;;;;;2.38;1.25;;;;;;;;;;5080963;28;20196;-76
2022/08/24 00:03:47;;;;;;;2.55;1.48;;;;;;;;;;5084759;28;20222;-76
2022/08/24 00:06:16;;;;;;;1.63;1.20;;;;;;;;;;5073744;28;20252;-76
2022/08/24 00:08:44;;;;;;;1.50;1.38;;;;;;;;;;5083577;28;20285;-76
2022/08/24 00:11:12;;;;;;;2.85;1.42;;;;;;;;;;5091620;28;20234;-76
2022/08/24 00:13:39;;;;;;;1.58;1.48;;;;;;;;;;5091187;28;20260;-76
2022/08/24 00:16:07;;;;;;;1.95;1.30;;;;;;;;;;5077802;28;20219;-76
2022/08/24 00:18:34;;;;;;;1.98;1.67;;;;;;;;;;5091706;28;20256;-76
2022/08/24 00:21:02;;;;;;;1.90;1.80;;;;;;;;;;5095497;28;20658;-76
2022/08/24 00:23:29;;;;;;;2.63;1.50;;;;;;;;;;5094634;28;20283;-76
2022/08/24 00:25:58;;;;;;;1.88;1.60;;;;;;;;;;5095368;28;20281;-76
2022/08/24 00:28:25;;;;;;;2.75;1.60;;;;;;;;;;5094399;28;20234;-75
2022/08/24 00:30:53;;;;;;;2.28;1.55;;;;;;;;;;5095105;28;20285;-75
2022/08/24 00:33:20;;;;;;;1.85;1.30;;;;;;;;;;5075445;28;20722;-76
2022/08/24 00:35:47;;;;;;;2.70;1.42;;;;;;;;;;5075526;28;20310;-76
2022/08/24 00:38:15;;;;;;;1.42;1.20;;;;;;;;;;5074899;28;20238;-76
2022/08/24 00:40:45;;;;;;;2.53;1.58;;;;;;;;;;5087778;28;20286;-76
2022/08/24 00:43:13;;;;;;;2.65;1.30;;;;;;;;;;5095416;28;20271;-75
2022/08/24 00:45:43;;;;;;;3.90;1.58;;;;;;;;;;5094902;28;20221;-76
2022/08/24 00:48:14;;;;;;;2.35;1.95;;;;;;;;;;5095247;28;20238;-76
2022/08/24 00:50:43;;;;;;;3.30;2.70;;;;;;;;;;5095040;28;20290;-76
2022/08/24 00:53:11;;;;;;;2.25;2.05;;;;;;;;;;5094849;28;20238;-76
2022/08/24 00:55:42;;;;;;;3.70;1.88;;;;;;;;;;5094599;28;20257;-76
2022/08/24 00:58:11;;;;;;;2.42;1.90;;;;;;;;;;5093606;28;20222;-76
2022/08/24 01:00:44;;;;;;;2.38;1.63;;;;;;;;;;5074636;28;20203;-75
2022/08/24 01:03:12;;;;;;;2.60;1.60;;;;;;;;;;5074840;28;20619;-76
2022/08/24 01:05:40;;;;;;;1.83;1.73;;;;;;;;;;5074773;28;20203;-76
2022/08/24 01:08:08;;;;;;;1.55;1.35;;;;;;;;;;5073929;28;20678;-76
2022/08/24 01:10:38;;;;;;;1.85;1.55;;;;;;;;;;5066008;28;20722;-76
2022/08/24 01:13:07;;;;;;;1.60;1.50;;;;;;;;;;5072185;28;20286;-75
2022/08/24 01:15:37;;;;;;;2.53;1.52;;;;;;;;;;5074612;28;20413;-76
2022/08/24 01:20:57;;;;;;;1.60;1.50;;;;;;;;;;5073725;28;20210;-75
2022/08/24 01:23:33;;;;;;;2.20;1.95;;;;;;;;;;5073347;28;20199;-75
2022/08/24 01:26:01;;;;;;;2.90;1.80;;;;;;;;;;5074451;28;20617;-76
2022/08/24 01:28:29;;;;;;;2.38;1.70;;;;;;;;;;5066844;28;20314;-75
2022/08/24 01:30:56;;;;;;;2.47;1.80;;;;;;;;;;5054476;28;20207;-76
2022/08/24 01:33:24;;;;;;;2.20;2.00;;;;;;;;;;5053807;28;20200;-75
2022/08/24 01:35:55;;;;;;;2.33;1.90;;;;;;;;;;5056862;28;20302;-76
2022/08/24 01:38:23;;;;;;;2.10;1.90;;;;;;;;;;5059317;28;20195;-76
2022/08/24 01:40:53;;;;;;;2.20;2.00;;;;;;;;;;5073986;28;20210;-76
2022/08/24 01:43:23;;;;;;;5.30;2.40;;;;;;;;;;5073551;28;20238;-75
2022/08/24 01:45:51;;;;;;;2.90;2.60;;;;;;;;;;5073811;28;20192;-76
2022/08/24 01:48:19;;;;;;;2.80;2.40;;;;;;;;;;5073819;28;20320;-76
2022/08/24 01:50:46;;;;;;;4.85;2.47;;;;;;;;;;5073470;28;20426;-76
2022/08/24 01:53:14;;;;;;;3.83;2.73;;;;;;;;;;5062256;28;20204;-76
2022/08/24 01:55:42;;;;;;;4.40;2.50;;;;;;;;;;5053138;28;20315;-76
2022/08/24 01:58:11;;;;;;;3.00;2.20;;;;;;;;;;5062318;28;20303;-76
2022/08/24 02:00:38;;;;;;;2.43;2.23;;;;;;;;;;5093688;28;20285;-76
2022/08/24 02:03:06;;;;;;;2.40;2.20;;;;;;;;;;5094033;28;20206;-75
2022/08/24 02:05:33;;;;;;;2.90;1.97;;;;;;;;;;5093277;28;20226;-76
2022/08/24 02:08:01;;;;;;;3.00;2.20;;;;;;;;;;5093655;28;20206;-75
2022/08/24 02:10:29;;;;;;;3.33;2.20;;;;;;;;;;5093276;28;20206;-75
2022/08/24 02:12:59;;;;;;;3.43;2.33;;;;;;;;;;5092892;28;20229;-75
2022/08/24 02:15:29;;;;;;;3.63;2.00;;;;;;;;;;5083489;28;20267;-76
2022/08/24 02:17:57;;;;;;;3.60;1.90;;;;;;;;;;5073306;28;20206;-76
2022/08/24 02:20:24;;;;;;;3.73;2.03;;;;;;;;;;5080465;28;20237;-76
2022/08/24 02:22:52;;;;;;;3.45;2.15;;;;;;;;;;5091630;28;20230;-75
2022/08/24 02:25:20;;;;;;;2.80;2.47;;;;;;;;;;5093517;28;20709;-76
2022/08/24 02:27:47;;;;;;;3.00;2.27;;;;;;;;;;5084255;28;20560;-76
2022/08/24 02:30:14;;;;;;;3.03;2.73;;;;;;;;;;5088512;28;20285;-76
2022/08/24 02:32:43;;;;;;;3.45;2.60;;;;;;;;;;5093135;28;20685;-75
2022/08/24 02:35:11;;;;;;;4.00;2.80;;;;;;;;;;5092721;28;20257;-76
2022/08/24 02:37:39;;;;;;;7.60;3.50;;;;;;;;;;5092574;28;20290;-76
2022/08/24 02:40:08;;;;;;;4.63;3.10;;;;;;;;;;5091646;28;20198;-75
2022/08/24 02:42:35;;;;;;;5.00;2.97;;;;;;;;;;5093057;28;20198;-76
2022/08/24 02:45:03;;;;;;;3.42;2.63;;;;;;;;;;5073717;28;20610;-76
2022/08/24 02:47:31;;;;;;;3.80;2.97;;;;;;;;;;5087181;28;20195;-75
2022/08/24 02:50:01;;;;;;;2.90;2.70;;;;;;;;;;5072689;28;20284;-75
2022/08/24 02:52:28;;;;;;;3.07;2.77;;;;;;;;;;5072343;28;20206;-75
2022/08/24 02:54:55;;;;;;;2.60;2.40;;;;;;;;;;5072516;28;20254;-76
2022/08/24 02:57:23;;;;;;;2.60;2.40;;;;;;;;;;5072863;28;20227;-76
2022/08/24 02:59:50;;;;;;;2.87;2.50;;;;;;;;;;5072095;28;20242;-76
2022/08/24 03:02:18;;;;;;;3.70;2.70;;;;;;;;;;5073031;28;20249;-76
2022/08/24 03:04:46;;;;;;;4.90;2.37;;;;;;;;;;5083526;28;20198;-76
2022/08/24 03:07:15;;;;;;;2.70;2.50;;;;;;;;;;5092507;28;20217;-75
2022/08/24 03:09:42;;;;;;;5.47;2.77;;;;;;;;;;5092807;28;20205;-76
2022/08/24 03:12:09;;;;;;;3.17;2.60;;;;;;;;;;5091943;28;20297;-76
2022/08/24 03:14:36;;;;;;;4.60;3.30;;;;;;;;;;5092368;28;20198;-76
2022/08/24 03:17:04;;;;;;;5.57;3.10;;;;;;;;;;5084727;28;20251;-75
2022/08/24 03:19:32;;;;;;;4.53;2.83;;;;;;;;;;5082676;28;20237;-75
2022/08/24 03:21:59;;;;;;;4.03;3.00;;;;;;;;;;5092833;28;20230;-76
2022/08/24 03:24:27;;;;;;;5.30;4.13;;;;;;;;;;5092568;28;20222;-76
2022/08/24 03:26:54;;;;;;;6.17;4.40;;;;;;;;;;5092415;28;20285;-76
2022/08/24 03:29:22;;;;;;;6.10;4.40;;;;;;;;;;5091653;28;20241;-75
2022/08/24 03:31:49;;;;;;;5.97;4.50;;;;;;;;;;5092703;28;20230;-76
2022/08/24 03:34:18;;;;;;;5.43;4.70;;;;;;;;;;5089211;28;20226;-75
2022/08/24 03:36:46;;;;;;;5.23;4.73;;;;;;;;;;5076680;28;20230;-75
2022/08/24 03:39:13;;;;;;;4.60;4.10;;;;;;;;;;5072335;28;20202;-76
2022/08/24 03:41:42;;;;;;;5.33;4.20;;;;;;;;;;5072849;28;20286;-75
2022/08/24 03:44:09;;;;;;;5.03;4.13;;;;;;;;;;5072660;28;20290;-75
2022/08/24 03:46:37;;;;;;;4.93;4.23;;;;;;;;;;5072008;28;20297;-76
2022/08/24 03:49:06;;;;;;;5.23;3.70;;;;;;;;;;5074596;28;20278;-76
2022/08/24 03:51:34;;;;;;;5.57;3.93;;;;;;;;;;5093808;28;20583;-76
2022/08/24 03:54:02;;;;;;;4.33;3.93;;;;;;;;;;5090637;28;20205;-76
2022/08/24 03:56:29;;;;;;;3.97;3.60;;;;;;;;;;5076090;28;20261;-76
2022/08/24 03:58:58;;;;;;;4.80;3.70;;;;;;;;;;5075107;28;20321;-76
2022/08/24 04:01:25;;;;;;;7.37;3.70;;;;;;;;;;5075968;28;20230;-76
2022/08/24 04:03:53;;;;;;;3.90;3.50;;;;;;;;;;5075653;28;20231;-76
2022/08/24 04:06:21;;;;;;;4.70;3.53;;;;;;;;;;5074989;28;20195;-75
2022/08/24 04:08:48;;;;;;;4.10;3.70;;;;;;;;;;5074759;28;20671;-76
2022/08/24 04:11:16;;;;;;;4.40;3.40;;;;;;;;;;5075554;28;20234;-76
2022/08/24 04:13:44;;;;;;;4.23;3.50;;;;;;;;;;5075611;28;20234;-76
2022/08/24 04:16:13;;;;;;;3.87;3.27;;;;;;;;;;5075204;28;20223;-75
2022/08/24 04:18:41;;;;;;;5.97;4.20;;;;;;;;;;5055694;28;20290;-76
2022/08/24 04:21:16;;;;;;;5.57;3.60;;;;;;;;;;5069406;28;20238;-76
2022/08/24 04:23:43;;;;;;;3.53;3.23;;;;;;;;;;5075179;28;20226;-76
2022/08/24 04:26:10;;;;;;;4.20;3.67;;;;;;;;;;5074900;28;20279;-74
2022/08/24 04:28:37;;;;;;;4.37;3.80;;;;;;;;;;5075615;28;20290;-74
2022/08/24 04:31:05;;;;;;;3.97;3.63;;;;;;;;;;5074499;28;20241;-74
2022/08/24 04:33:34;;;;;;;4.63;3.50;;;;;;;;;;5074722;28;20238;-74
2022/08/24 04:36:01;;;;;;;3.63;3.27;;;;;;;;;;5074817;28;20211;-74
2022/08/24 04:38:29;;;;;;;3.47;3.10;;;;;;;;;;5073466;28;20294;-75
2022/08/24 04:40:56;;;;;;;4.20;3.30;;;;;;;;;;5074498;28;20666;-74
2022/08/24 04:43:25;;;;;;;2.93;2.63;;;;;;;;;;5073973;28;20195;-75
2022/08/24 04:45:52;;;;;;;3.00;2.70;;;;;;;;;;5073773;28;20246;-74
2022/08/24 04:48:19;;;;;;;3.40;3.00;;;;;;;;;;5072939;28;20289;-75
2022/08/24 04:50:48;;;;;;;3.50;3.20;;;;;;;;;;5073305;28;20278;-74
2022/08/24 04:53:16;;;;;;;4.10;2.70;;;;;;;;;;5074628;28;20282;-75
2022/08/24 04:55:44;;;;;;;5.27;2.73;;;;;;;;;;5074109;28;20219;-75
2022/08/24 04:58:11;;;;;;;3.40;3.10;;;;;;;;;;5074396;28;20226;-75
2022/08/24 05:00:38;;;;;;;3.67;3.00;;;;;;;;;;5073880;28;20242;-75
2022/08/24 05:03:06;;;;;;;3.93;2.60;;;;;;;;;;5072935;28;20238;-76
2022/08/24 05:05:33;;;;;;;3.30;3.00;;;;;;;;;;5068084;28;20219;-75
2022/08/24 05:08:01;;;;;;;5.07;2.80;;;;;;;;;;5057337;28;20683;-76
2022/08/24 05:10:29;;;;;;;5.20;2.90;;;;;;;;;;5073015;28;20678;-76
2022/08/24 05:12:56;;;;;;;3.80;2.93;;;;;;;;;;5074308;28;20210;-76
2022/08/24 05:15:23;;;;;;;3.20;2.77;;;;;;;;;;5074215;28;20207;-76
2022/08/24 05:17:51;;;;;;;3.30;3.00;;;;;;;;;;5060787;28;20250;-76
2022/08/24 05:20:19;;;;;;;3.00;2.57;;;;;;;;;;5064772;28;20227;-76
2022/08/24 05:22:46;;;;;;;4.03;2.93;;;;;;;;;;5068758;28;20200;-75
2022/08/24 05:25:14;;;;;;;3.07;2.77;;;;;;;;;;5062627;28;20239;-76
2022/08/24 05:27:42;;;;;;;3.00;2.67;;;;;;;;;;5061106;28;20699;-75
2022/08/24 05:30:10;;;;;;;3.93;2.97;;;;;;;;;;5053676;28;20282;-75
2022/08/24 05:32:38;;;;;;;3.37;2.93;;;;;;;;;;5066390;28;20554;-76
2022/08/24 05:35:05;;;;;;;4.27;3.47;;;;;;;;;;5067099;28;20254;-76
2022/08/24 05:37:34;;;;;;;3.73;3.43;;;;;;;;;;5059798;28;20292;-76
2022/08/24 05:40:01;;;;;;;4.87;3.37;;;;;;;;;;5060450;28;20231;-75
2022/08/24 05:42:30;;;;;;;4.03;3.63;;;;;;;;;;5064387;28;20207;-78
2022/08/24 05:44:58;;;;;;;4.10;3.70;;;;;;;;;;5066409;28;20225;-78
2022/08/24 05:47:25;;;;;;;4.53;4.00;;;;;;;;;;5055017;28;20192;-78
2022/08/24 05:49:53;;;;;;;5.60;4.90;;;;;;;;;;5061332;28;20227;-76
2022/08/24 05:52:20;;;;;;;5.65;4.90;;;;;;;;;;5061142;28;20200;-76
2022/08/24 05:54:51;;;;;;;5.55;5.05;;;;;;;;;;5055310;28;20227;-76
2022/08/24 05:57:18;;;;;;;6.43;5.72;;;;;;;;;;5069473;28;20321;-76
2022/08/24 05:59:47;;;;;;;5.93;5.32;;;;;;;;;;5078600;28;20229;-76
2022/08/24 06:02:15;;;;;;;5.97;5.38;;;;;;;;;;5084432;28;20222;-76
2022/08/24 06:04:42;;;;;;;7.22;5.03;;;;;;;;;;5084522;28;20226;-77
2022/08/24 06:07:10;;;;;;;6.35;5.72;;;;;;;;;;5078545;28;20282;-77
2022/08/24 06:09:37;;;;;;;6.65;5.63;;;;;;;;;;5092540;28;20654;-77
2022/08/24 06:12:05;;;;;;;8.32;5.82;;;;;;;;;;5092972;28;20194;-77
2022/08/24 06:14:33;;;;;;;7.72;5.55;;;;;;;;;;5092627;28;20202;-76
2022/08/24 06:17:04;;;;;;;6.97;5.00;;;;;;;;;;5090227;28;20224;-76
2022/08/24 06:19:31;;;;;;;6.40;5.10;;;;;;;;;;5074463;28;20234;-76
2022/08/24 06:21:58;;;;;;;7.30;5.35;;;;;;;;;;5073220;28;20610;-75
2022/08/24 06:27:24;;;;;;;7.15;6.18;;;;;;;;;;5091362;28;20201;-77
2022/08/24 06:29:52;;;;;;;6.70;6.00;;;;;;;;;;5076014;28;20596;-77
2022/08/24 06:32:21;;;;;;;6.68;5.93;;;;;;;;;;5090494;28;20731;-78
2022/08/24 06:34:48;;;;;;;9.05;6.78;;;;;;;;;;5073502;28;20242;-78
2022/08/24 06:37:16;;;;;;;6.90;5.90;;;;;;;;;;5083319;28;20308;-78
2022/08/24 06:39:43;;;;;;;10.73;6.80;;;;;;;;;;5089141;28;20205;-78
2022/08/24 06:42:10;;;;;;;6.60;6.00;;;;;;;;;;5090587;28;20218;-78
2022/08/24 06:44:38;;;;;;;8.55;6.18;;;;;;;;;;5085282;28;20198;-78
2022/08/24 06:47:05;;;;;;;7.53;6.82;;;;;;;;;;5083671;28;20285;-78
2022/08/24 06:49:36;;;;;;;7.68;6.82;;;;;;;;;;5078264;28;20226;-78
2022/08/24 06:52:05;;;;;;;7.35;6.65;;;;;;;;;;5074577;28;20199;-77
2022/08/24 06:54:32;;;;;;;7.70;7.00;;;;;;;;;;5092331;28;20721;-78
2022/08/24 06:57:02;;;;;;;7.55;6.85;;;;;;;;;;5091242;28;20668;-78
2022/08/24 06:59:30;;;;;;;8.13;6.15;;;;;;;;;;5092313;28;20351;-78
2022/08/24 07:01:58;;;;;;;7.65;6.03;;;;;;;;;;5091093;28;20226;-79
2022/08/24 07:04:26;;;;;;;6.85;6.25;;;;;;;;;;5092020;28;20480;-78
2022/08/24 07:06:55;;;;;;;7.50;6.20;;;;;;;;;;5082191;28;20201;-78
2022/08/24 07:09:23;;;;;;;7.05;6.45;;;;;;;;;;5092243;28;20206;-77
2022/08/24 07:11:51;;;;;;;6.38;5.78;;;;;;;;;;5092200;28;20205;-77
2022/08/24 07:14:19;;;;;;;5.93;5.43;;;;;;;;;;5084222;28;20225;-78
2022/08/24 07:16:46;;;;;;;6.28;5.68;;;;;;;;;;5080582;28;20219;-78
2022/08/24 07:19:13;;;;;;;6.35;5.72;;;;;;;;;;5081304;28;20313;-78
2022/08/24 07:21:41;;;;;;;5.78;5.25;;;;;;;;;;5082139;28;20692;-78
2022/08/24 07:24:09;;;;;;;7.40;5.03;;;;;;;;;;5092674;28;20252;-78
2022/08/24 07:26:36;;;;;;;5.53;5.03;;;;;;;;;;5087778;28;20198;-77
2022/08/24 07:29:06;;;;;;;6.15;4.60;;;;;;;;;;5076765;28;20199;-78
2022/08/24 07:31:33;;;;;;;5.03;4.63;;;;;;;;;;5072430;28;20242;-78
2022/08/24 07:34:00;;;;;;;5.80;5.20;;;;;;;;;;5080441;28;20776;-78
2022/08/24 07:36:27;;;;;;;4.68;4.10;;;;;;;;;;5085607;28;20333;-78
2022/08/24 07:38:56;;;;;;;3.95;3.40;;;;;;;;;;5088854;28;20732;-78
2022/08/24 07:41:26;;;;;;;3.65;3.20;;;;;;;;;;5085104;28;20666;-78
2022/08/24 07:43:53;;;;;;;4.22;2.70;;;;;;;;;;5075614;28;20540;-78
2022/08/24 07:46:21;;;;;;;2.90;2.33;;;;;;;;;;5081081;28;20203;-78
2022/08/24 07:48:48;;;;;;;5.13;2.45;;;;;;;;;;5090365;28;20723;-78
2022/08/24 07:51:17;;;;;;;3.72;1.90;;;;;;;;;;5083705;28;20238;-78
2022/08/24 07:53:44;;;;;;;2.85;2.20;;;;;;;;;;5086209;28;20226;-78
2022/08/24 07:56:11;;;;;;;7.75;1.98;;;;;;;;;;5074019;28;20199;-78
2022/08/24 07:58:40;;;;;;;4.20;2.30;;;;;;;;;;5074684;28;20656;-78
2022/08/24 08:01:08;;;;;;;2.50;1.90;;;;;;;;;;5055721;28;20233;-78
2022/08/24 08:03:36;;;;;;;2.47;2.20;;;;;;;;;;5066426;28;20816;-78
2022/08/24 08:06:07;;;;;;;5.97;2.20;;;;;;;;;;5071150;28;20613;-79
2022/08/24 08:08:36;;;;;;;2.85;2.60;;;;;;;;;;5071553;28;20274;-79
2022/08/24 08:11:06;;;;;;;6.85;3.30;;;;;;;;;;5071343;28;20227;-79
2022/08/24 08:13:33;;;;;;;3.85;3.22;;;;;;;;;;5072688;28;20245;-78
2022/08/24 08:16:02;;;;;;;2.95;2.65;;;;;;;;;;5070510;28;20234;-78
2022/08/24 08:18:30;;;;;;;4.28;2.70;;;;;;;;;;5061733;28;20240;-78
2022/08/24 08:20:57;;;;;;;2.95;2.30;;;;;;;;;;5065389;28;20219;-78
2022/08/24 08:26:14;;;;;;;2.63;1.92;;;;;;;;;;5061729;28;20193;-78
2022/08/24 08:28:41;;;;;;;4.88;1.88;;;;;;;;;;5058789;28;20666;-78
2022/08/24 08:31:09;;;;;;;2.85;1.52;;;;;;;;;;5071026;28;20195;-78
2022/08/24 08:33:37;;;;;;;4.05;1.60;;;;;;;;;;5067417;28;20218;-77
2022/08/24 08:36:05;;;;;;;2.65;1.60;;;;;;;;;;5039274;28;20223;-78
2022/08/24 08:38:33;;;;;;;3.28;1.70;;;;;;;;;;5063180;28;20302;-78
2022/08/24 08:41:09;;;;;;;3.05;1.35;;;;;;;;;;5067644;28;20238;-78
2022/08/24 08:43:41;;;;;;;2.47;1.40;;;;;;;;;;5065389;28;20219;-78
2022/08/24 08:46:16;;;;;;;3.25;1.40;;;;;;;;;;5060674;28;20836;-78
2022/08/24 08:49:04;;;;;;;2.05;1.40;;;;;;;;;;5054730;28;20184;-78
2022/08/24 08:51:49;;;;;;;6.80;1.58;;;;;;;;;;5058464;28;20286;-78
2022/08/24 08:54:26;;;;;;;2.35;1.20;;;;;;;;;;5058253;28;20227;-78
2022/08/24 08:57:04;;;;;;;2.25;1.17;;;;;;;;;;5062914;28;20249;-78
2022/08/24 08:59:39;;;;;;;1.38;1.10;;;;;;;;;;5064098;28;20317;-78
2022/08/24 09:02:14;;;;;;;2.38;1.08;;;;;;;;;;5063521;28;20248;-78
2022/08/24 09:04:51;;;;;;;1.08;0.98;;;;;;;;;;5063787;28;20202;-78
2022/08/24 09:07:23;;;;;;;3.40;1.00;;;;;;;;;;5065439;28;20186;-78
2022/08/24 09:10:11;;;;;;;1.17;0.80;;;;;;;;;;5058689;28;20238;-78
2022/08/24 09:12:48;;;;;;;1.42;0.75;;;;;;;;;;5059773;28;20246;-77
2022/08/24 09:15:31;;;;;;;1.90;0.93;;;;;;;;;;5059800;28;20218;-78
2022/08/24 09:18:06;;;;;;;1.25;0.70;;;;;;;;;;5060419;28;20298;-78
2022/08/24 09:20:52;;;;;;;3.90;0.90;;;;;;;;;;5059851;28;20191;-78
2022/08/24 09:23:23;;;;;;;0.70;0.70;;;;;;;;;;5065457;28;20198;-77
2022/08/24 09:25:54;;;;;;;2.17;0.70;;;;;;;;;;5068255;28;20230;-77
2022/08/24 09:28:32;;;;;;;4.53;1.00;;;;;;;;;;5069227;28;20230;-78
2022/08/24 09:31:10;;;;;;;0.50;0.50;;;;;;;;;;5068020;28;20252;-78
2022/08/24 09:33:43;;;;;;;1.95;0.50;;;;;;;;;;5065752;28;20199;-78
2022/08/24 09:36:12;;;;;;;0.73;0.50;;;;;;;;;;5068525;28;20277;-78
2022/08/24 09:39:00;;;;;;;0.68;0.52;;;;;;;;;;5056274;28;20210;-78
2022/08/24 09:41:41;;;;;;;1.10;0.70;;;;;;;;;;5055953;28;20231;-78
2022/08/24 09:44:27;;;;;;;1.13;0.85;;;;;;;;;;5071691;28;20281;-78
2022/08/24 09:47:13;;;;;;;2.95;0.63;;;;;;;;;;5062899;28;20199;-78
2022/08/24 09:50:09;;;;;;;1.00;0.68;;;;;;;;;;5060590;28;20210;-77
2022/08/24 09:52:45;;;;;;;1.15;0.55;;;;;;;;;;5057605;28;20246;-78
2022/08/24 09:55:34;;;;;;;0.80;0.70;;;;;;;;;;5069198;28;20202;-78
2022/08/24 09:58:15;;;;;;;1.05;0.52;;;;;;;;;;5068877;28;20277;-78
2022/08/24 10:00:45;;;;;;;0.90;0.60;;;;;;;;;;5066227;28;20236;-78
2022/08/24 10:03:20;;;;;;;0.82;0.70;;;;;;;;;;5065125;28;20195;-78
2022/08/24 10:05:57;;;;;;;1.55;0.75;;;;;;;;;;5062939;28;20201;-78
2022/08/24 10:08:33;;;;;;;1.52;0.60;;;;;;;;;;5054006;28;20195;-78
2022/08/24 10:11:11;;;;;;;0.80;0.70;;;;;;;;;;5064121;28;20674;-78
2022/08/24 10:13:41;;;;;;;1.38;0.60;;;;;;;;;;5068574;28;20286;-78
2022/08/24 10:16:17;;;;;;;1.23;0.52;;;;;;;;;;5070733;28;20673;-78
2022/08/24 10:18:51;;;;;;;1.70;0.77;;;;;;;;;;5072828;28;20205;-78
2022/08/24 10:21:27;;;;;;;2.42;0.70;;;;;;;;;;5058299;28;20194;-79
2022/08/24 10:24:00;;;;;;;0.70;0.70;;;;;;;;;;5053945;28;20191;-78
2022/08/24 10:26:33;;;;;;;2.42;0.70;;;;;;;;;;5056982;28;20265;-77
2022/08/24 10:29:12;;;;;;;1.08;0.60;;;;;;;;;;5059677;28;20273;-78
2022/08/24 10:31:45;;;;;;;1.30;0.60;;;;;;;;;;5055987;28;20644;-78
2022/08/24 10:34:23;;;;;;;0.65;0.50;;;;;;;;;;5061521;28;20233;-79
2022/08/24 10:37:06;;;;;;;2.38;0.73;;;;;;;;;;5057101;28;20194;-78
2022/08/24 10:39:44;;;;;;;1.48;0.90;;;;;;;;;;5062234;28;20226;-78
2022/08/24 10:45:40;;;;;;;1.15;0.80;;;;;;;;;;5055327;28;20230;-76
2022/08/24 10:48:18;;;;;;;0.98;0.60;;;;;;;;;;5061968;28;20226;-76
2022/08/24 10:50:51;;;;;;;0.88;0.70;;;;;;;;;;5059703;28;20304;-77
2022/08/24 10:53:23;;;;;;;0.70;0.70;;;;;;;;;;5060657;28;20214;-79
2022/08/24 10:55:57;;;;;;;0.70;0.70;;;;;;;;;;5059706;28;20195;-76
2022/08/24 10:58:36;;;;;;;1.23;0.73;;;;;;;;;;5057774;28;20266;-77
2022/08/24 11:01:14;;;;;;;1.20;0.70;;;;;;;;;;5070236;28;20203;-78
2022/08/24 11:03:48;;;;;;;0.70;0.70;;;;;;;;;;5068874;28;20230;-78
2022/08/24 11:06:17;;;;;;;1.67;0.85;;;;;;;;;;5065293;28;20289;-77
2022/08/24 11:08:53;;;;;;;1.17;0.70;;;;;;;;;;5070647;28;20897;-77
2022/08/24 11:11:24;;;;;;;0.82;0.80;;;;;;;;;;5063180;28;20234;-77
2022/08/24 11:13:52;;;;;;;1.67;0.70;;;;;;;;;;5067826;28;20345;-76
2022/08/24 11:16:28;;;;;;;0.70;0.70;;;;;;;;;;5069835;28;20242;-76
2022/08/24 11:18:56;;;;;;;1.42;0.90;;;;;;;;;;5067194;28;20214;-77
2022/08/24 11:21:34;;;;;;;0.80;0.70;;;;;;;;;;5061720;28;20257;-76
2022/08/24 11:24:04;;;;;;;1.17;0.93;;;;;;;;;;5061840;28;20230;-77
2022/08/24 11:26:32;;;;;;;1.20;0.88;;;;;;;;;;5069908;28;20230;-77
2022/08/24 11:29:00;;;;;;;1.13;0.80;;;;;;;;;;5068794;28;20199;-77
2022/08/24 11:31:29;;;;;;;2.70;0.85;;;;;;;;;;5068706;28;20887;-76
2022/08/24 11:33:59;;;;;;;1.80;0.70;;;;;;;;;;5066284;28;20287;-76
2022/08/24 11:36:28;;;;;;;1.33;0.80;;;;;;;;;;5066233;28;20592;-78
2022/08/24 11:41:55;;;;;;;1.65;0.82;;;;;;;;;;5130107;27;20945;-77
2022/08/24 11:44:29;;;;;;;0.70;0.70;;;;;;;;;;5128636;27;20295;-78
2022/08/24 11:47:02;;;;;;;1.60;0.70;;;;;;;;;;5124729;28;20371;-78
2022/08/24 11:49:41;;;;;;;1.52;0.70;;;;;;;;;;5125090;27;20193;-78
2022/08/24 11:52:12;;;;;;;1.00;0.90;;;;;;;;;;5127728;28;20575;-78
2022/08/24 11:54:44;;;;;;;1.02;0.88;;;;;;;;;;5129448;28;20235;-78
2022/08/24 11:57:16;;;;;;;0.65;0.63;;;;;;;;;;5124486;28;20232;-78
2022/08/24 11:59:47;;;;;;;1.77;0.88;;;;;;;;;;5128350;28;20264;-78
2022/08/24 12:02:18;;;;;;;1.70;0.90;;;;;;;;;;5122910;27;20197;-78
2022/08/24 12:04:50;;;;;;;1.35;0.77;;;;;;;;;;5112463;28;20232;-78
2022/08/24 12:07:21;;;;;;;1.83;0.80;;;;;;;;;;5108293;28;20229;-77
2022/08/24 12:09:58;;;;;;;2.47;0.90;;;;;;;;;;5108532;28;20225;-77
2022/08/24 12:12:30;;;;;;;1.60;0.85;;;;;;;;;;5110739;28;20225;-78
2022/08/24 12:15:00;;;;;;;0.73;0.70;;;;;;;;;;5106238;28;20193;-77
2022/08/24 12:17:31;;;;;;;1.13;0.80;;;;;;;;;;5111984;28;20202;-77
2022/08/24 12:20:00;;;;;;;2.63;0.90;;;;;;;;;;5116859;28;20628;-78
2022/08/24 12:22:28;;;;;;;0.98;0.70;;;;;;;;;;5110797;28;20202;-78
2022/08/24 12:24:57;;;;;;;1.95;0.70;;;;;;;;;;5119320;28;20277;-78
2022/08/24 12:27:26;;;;;;;1.65;0.80;;;;;;;;;;5104931;28;20651;-79
2022/08/24 12:30:01;;;;;;;1.30;0.82;;;;;;;;;;5113768;28;20323;-77
2022/08/24 12:32:33;;;;;;;1.65;0.70;;;;;;;;;;5117230;28;20204;-78
2022/08/24 12:35:02;;;;;;;1.85;0.75;;;;;;;;;;5108424;28;20207;-78
2022/08/24 12:37:32;;;;;;;0.60;0.60;;;;;;;;;;5108682;28;20251;-77
2022/08/24 12:40:05;;;;;;;1.63;1.20;;;;;;;;;;5106702;28;20261;-77
2022/08/24 12:42:37;;;;;;;1.10;1.00;;;;;;;;;;5109057;28;20204;-76
2022/08/24 12:45:08;;;;;;;1.27;1.00;;;;;;;;;;5118754;28;20232;-77
2022/08/24 12:47:37;;;;;;;1.00;0.80;;;;;;;;;;5113379;28;20696;-76
2022/08/24 12:50:06;;;;;;;0.73;0.73;;;;;;;;;;5108027;28;20221;-79
2022/08/24 12:52:54;;;;;;;1.38;0.60;;;;;;;;;;5098609;28;20226;-77
2022/08/24 12:55:49;;;;;;;1.10;0.80;;;;;;;;;;5096835;28;20208;-77
2022/08/24 12:58:27;;;;;;;1.85;0.70;;;;;;;;;;5101379;28;20228;-78
2022/08/24 13:00:57;;;;;;;1.98;0.90;;;;;;;;;;5102455;28;20252;-78
2022/08/24 13:03:26;;;;;;;1.52;0.77;;;;;;;;;;5110391;28;20198;-79
2022/08/24 13:05:57;;;;;;;1.42;0.80;;;;;;;;;;5104599;28;20229;-79
2022/08/24 13:08:34;;;;;;;1.10;0.80;;;;;;;;;;5092246;28;20226;-78
2022/08/24 13:11:04;;;;;;;1.85;0.98;;;;;;;;;;5098816;28;20280;-78
2022/08/24 13:13:44;;;;;;;1.60;0.80;;;;;;;;;;5089364;28;20203;-79
2022/08/24 13:16:32;;;;;;;1.30;0.80;;;;;;;;;;5100240;28;20226;-77
2022/08/24 13:19:14;;;;;;;3.20;0.98;;;;;;;;;;5095640;28;20233;-78
2022/08/24 13:21:51;;;;;;;1.35;1.20;;;;;;;;;;5104765;28;20661;-78
2022/08/24 13:24:49;;;;;;;1.65;0.70;;;;;;;;;;5094721;28;20209;-79
2022/08/24 13:27:34;;;;;;;1.15;0.90;;;;;;;;;;5098884;28;20746;-78
2022/08/24 13:30:08;;;;;;;3.45;0.90;;;;;;;;;;5096604;28;20619;-79
2022/08/24 13:32:39;;;;;;;1.05;0.80;;;;;;;;;;5113832;28;20228;-78
2022/08/24 13:35:22;;;;;;;0.98;0.85;;;;;;;;;;5100930;28;20682;-79
2022/08/24 13:38:04;;;;;;;2.13;0.85;;;;;;;;;;5096989;28;20198;-79
2022/08/24 13:40:32;;;;;;;2.30;0.70;;;;;;;;;;5091258;28;20275;-79
2022/08/24 13:43:07;;;;;;;1.38;0.90;;;;;;;;;;5113343;28;20229;-79
2022/08/24 13:45:36;;;;;;;2.13;0.70;;;;;;;;;;5096470;28;20282;-78
2022/08/24 13:48:14;;;;;;;1.85;0.75;;;;;;;;;;5097312;28;20207;-78
2022/08/24 13:50:44;;;;;;;2.38;0.77;;;;;;;;;;5104967;28;20203;-78
2022/08/24 13:53:30;;;;;;;3.90;0.80;;;;;;;;;;5093677;28;20221;-77
2022/08/24 13:56:13;;;;;;;3.20;0.80;;;;;;;;;;5086655;28;20210;-78
2022/08/24 13:58:43;;;;;;;2.92;0.75;;;;;;;;;;5093743;28;20327;-77
2022/08/24 14:01:22;;;;;;;1.85;0.85;;;;;;;;;;5075827;28;20275;-78
2022/08/24 14:03:58;;;;;;;1.90;0.70;;;;;;;;;;5106450;28;20203;-77
2022/08/24 14:06:30;;;;;;;0.93;0.60;;;;;;;;;;5096629;28;20201;-77
2022/08/24 14:09:03;;;;;;;2.25;0.70;;;;;;;;;;5107544;28;20292;-78
2022/08/24 14:11:37;;;;;;;0.85;0.73;;;;;;;;;;5101397;28;20244;-78
2022/08/24 14:14:08;;;;;;;2.47;0.80;;;;;;;;;;5104044;28;20315;-78
2022/08/24 14:19:29;;;;;;;0.68;0.63;;;;;;;;;;5107000;28;20193;-78
2022/08/24 14:21:59;;;;;;;5.28;1.02;;;;;;;;;;5084628;28;20291;-78
2022/08/24 14:24:28;;;;;;;2.33;0.73;;;;;;;;;;5094878;28;20256;-78
2022/08/24 14:27:05;;;;;;;2.05;0.68;;;;;;;;;;5092462;28;20662;-78
2022/08/24 14:29:39;;;;;;;1.35;0.75;;;;;;;;;;5083314;28;20194;-78
2022/08/24 14:32:33;;;;;;;2.80;0.90;;;;;;;;;;5109383;28;20194;-78
2022/08/24 14:35:07;;;;;;;0.95;0.65;;;;;;;;;;5112904;28;20256;-78
2022/08/24 14:37:38;;;;;;;0.95;0.82;;;;;;;;;;5108924;28;20230;-78
2022/08/24 14:40:12;;;;;;;2.15;0.85;;;;;;;;;;5099160;28;20257;-78
2022/08/24 14:42:41;;;;;;;2.05;0.70;;;;;;;;;;5090269;28;20230;-79
2022/08/24 14:45:10;;;;;;;5.75;0.80;;;;;;;;;;5097663;28;20713;-77
2022/08/24 14:47:43;;;;;;;0.88;0.85;;;;;;;;;;5102459;28;20222;-78
2022/08/24 14:50:14;;;;;;;1.35;0.80;;;;;;;;;;5097245;28;20228;-78
2022/08/24 14:52:46;;;;;;;0.65;0.60;;;;;;;;;;5097221;28;20282;-78
2022/08/24 14:55:19;;;;;;;0.88;0.77;;;;;;;;;;5098590;28;20233;-78
2022/08/24 14:57:52;;;;;;;2.35;0.68;;;;;;;;;;5107968;28;20309;-78
2022/08/24 15:00:21;;;;;;;0.70;0.70;;;;;;;;;;5109001;28;20285;-78
2022/08/24 15:03:07;;;;;;;0.98;0.88;;;;;;;;;;5103307;28;20240;-78
2022/08/24 15:05:40;;;;;;;1.02;0.60;;;;;;;;;;5093841;28;20284;-78
2022/08/24 15:08:08;;;;;;;0.77;0.75;;;;;;;;;;5106931;28;20229;-78
2022/08/24 15:10:37;;;;;;;0.85;0.85;;;;;;;;;;5088738;28;20232;-78
2022/08/24 15:13:08;;;;;;;1.38;0.80;;;;;;;;;;5100655;28;20198;-78
2022/08/24 15:15:38;;;;;;;1.20;0.68;;;;;;;;;;5108185;28;20289;-78
2022/08/24 15:18:09;;;;;;;1.90;0.70;;;;;;;;;;5112692;28;20202;-78
2022/08/24 15:20:54;;;;;;;0.70;0.70;;;;;;;;;;5092321;28;20210;-78
2022/08/24 15:23:25;;;;;;;0.82;0.70;;;;;;;;;;5094932;28;20205;-78